sensor_id;sensor_type;location;lat;lon;timestamp;temperature;humidity
3023;DHT22;1521;53.584;9.938;2024-03-06T00:00:57;4.70;26.60
3023;DHT22;1521;53.584;9.938;2024-03-06T00:03:22;4.70;31.20
3023;DHT22;1521;53.584;9.938;2024-03-06T00:05:48;4.70;38.90
3023;DHT22;1521;53.584;9.938;2024-03-06T00:08:13;4.70;51.40
3023;DHT22;1521;53.584;9.938;2024-03-06T00:10:40;4.70;61.00
3023;DHT22;1521;53.584;9.938;2024-03-06T00:13:06;4.70;71.10
3023;DHT22;1521;53.584;9.938;2024-03-06T00:15:32;4.70;77.40
3023;DHT22;1521;53.584;9.938;2024-03-06T00:17:57;4.70;83.50
3023;DHT22;1521;53.584;9.938;2024-03-06T00:20:24;4.70;87.60
3023;DHT22;1521;53.584;9.938;2024-03-06T00:22:49;4.70;92.20
3023;DHT22;1521;53.584;9.938;2024-03-06T00:25:15;4.70;96.00
3023;DHT22;1521;53.584;9.938;2024-03-06T00:27:41;4.70;99.20
3023;DHT22;1521;53.584;9.938;2024-03-06T00:30:07;4.70;99.90
3023;DHT22;1521;53.584;9.938;2024-03-06T00:32:32;4.70;99.90
3023;DHT22;1521;53.584;9.938;2024-03-06T00:34:58;4.70;99.90
3023;DHT22;1521;53.584;9.938;2024-03-06T00:37:23;4.70;99.90
3023;DHT22;1521;53.584;9.938;2024-03-06T00:39:49;4.70;99.90
3023;DHT22;1521;53.584;9.938;2024-03-06T00:42:15;4.70;99.90
3023;DHT22;1521;53.584;9.938;2024-03-06T00:44:41;4.70;99.90
3023;DHT22;1521;53.584;9.938;2024-03-06T00:47:06;4.60;99.90
3023;DHT22;1521;53.584;9.938;2024-03-06T00:49:32;4.70;99.90
3023;DHT22;1521;53.584;9.938;2024-03-06T00:51:58;4.70;99.90
3023;DHT22;1521;53.584;9.938;2024-03-06T00:54:23;4.60;99.90
3023;DHT22;1521;53.584;9.938;2024-03-06T00:56:49;4.60;99.90
3023;DHT22;1521;53.584;9.938;2024-03-06T00:59:14;4.60;99.90
3023;DHT22;1521;53.584;9.938;2024-03-06T01:01:40;4.70;99.90
3023;DHT22;1521;53.584;9.938;2024-03-06T01:04:10;4.60;99.90
3023;DHT22;1521;53.584;9.938;2024-03-06T01:06:36;4.60;99.90
3023;DHT22;1521;53.584;9.938;2024-03-06T01:09:02;4.60;99.90
3023;DHT22;1521;53.584;9.938;2024-03-06T01:11:27;4.60;99.90
3023;DHT22;1521;53.584;9.938;2024-03-06T01:13:53;4.60;99.90
3023;DHT22;1521;53.584;9.938;2024-03-06T01:16:19;4.60;99.90
3023;DHT22;1521;53.584;9.938;2024-03-06T01:18:45;4.60;99.90
3023;DHT22;1521;53.584;9.938;2024-03-06T01:21:11;4.50;99.90
3023;DHT22;1521;53.584;9.938;2024-03-06T01:23:36;4.60;99.90
3023;DHT22;1521;53.584;9.938;2024-03-06T01:26:02;4.60;99.90
3023;DHT22;1521;53.584;9.938;2024-03-06T01:28:27;4.50;99.90
3023;DHT22;1521;53.584;9.938;2024-03-06T01:30:53;4.60;99.90
3023;DHT22;1521;53.584;9.938;2024-03-06T01:33:19;4.60;99.90
3023;DHT22;1521;53.584;9.938;2024-03-06T01:35:45;4.60;99.90
3023;DHT22;1521;53.584;9.938;2024-03-06T01:38:11;4.50;99.90
3023;DHT22;1521;53.584;9.938;2024-03-06T01:40:36;4.50;99.90
3023;DHT22;1521;53.584;9.938;2024-03-06T01:43:02;4.50;99.90
3023;DHT22;1521;53.584;9.938;2024-03-06T01:45:28;4.60;99.90
3023;DHT22;1521;53.584;9.938;2024-03-06T01:47:53;4.60;99.90
3023;DHT22;1521;53.584;9.938;2024-03-06T01:50:19;4.60;99.90
3023;DHT22;1521;53.584;9.938;2024-03-06T01:52:46;4.50;99.90
3023;DHT22;1521;53.584;9.938;2024-03-06T01:55:12;4.50;99.90
3023;DHT22;1521;53.584;9.938;2024-03-06T01:57:38;4.50;99.90
3023;DHT22;1521;53.584;9.938;2024-03-06T02:00:08;4.50;99.90
3023;DHT22;1521;53.584;9.938;2024-03-06T02:02:40;4.50;99.90
3023;DHT22;1521;53.584;9.938;2024-03-06T02:05:05;4.50;99.90
3023;DHT22;1521;53.584;9.938;2024-03-06T02:07:32;4.50;99.90
3023;DHT22;1521;53.584;9.938;2024-03-06T02:09:58;4.50;99.90
3023;DHT22;1521;53.584;9.938;2024-03-06T02:12:24;4.50;99.90
3023;DHT22;1521;53.584;9.938;2024-03-06T02:14:50;4.50;99.90
3023;DHT22;1521;53.584;9.938;2024-03-06T02:17:15;4.60;99.90
3023;DHT22;1521;53.584;9.938;2024-03-06T02:19:42;4.60;99.90
3023;DHT22;1521;53.584;9.938;2024-03-06T02:22:08;4.50;99.90
3023;DHT22;1521;53.584;9.938;2024-03-06T02:24:34;4.50;99.90
3023;DHT22;1521;53.584;9.938;2024-03-06T02:27:00;4.50;99.90
3023;DHT22;1521;53.584;9.938;2024-03-06T02:29:26;4.50;99.90
3023;DHT22;1521;53.584;9.938;2024-03-06T02:31:51;4.50;99.90
3023;DHT22;1521;53.584;9.938;2024-03-06T02:34:17;4.50;99.90
3023;DHT22;1521;53.584;9.938;2024-03-06T02:36:43;4.50;99.90
3023;DHT22;1521;53.584;9.938;2024-03-06T02:39:08;4.50;99.90
3023;DHT22;1521;53.584;9.938;2024-03-06T02:41:35;4.50;99.90
3023;DHT22;1521;53.584;9.938;2024-03-06T02:44:01;4.40;99.90
3023;DHT22;1521;53.584;9.938;2024-03-06T02:46:28;4.40;99.90
3023;DHT22;1521;53.584;9.938;2024-03-06T02:48:53;4.40;99.90
3023;DHT22;1521;53.584;9.938;2024-03-06T02:51:20;4.50;99.90
3023;DHT22;1521;53.584;9.938;2024-03-06T02:53:46;4.40;99.90
3023;DHT22;1521;53.584;9.938;2024-03-06T02:56:18;4.40;99.90
3023;DHT22;1521;53.584;9.938;2024-03-06T02:58:44;4.40;99.90
3023;DHT22;1521;53.584;9.938;2024-03-06T03:01:10;4.40;99.90
3023;DHT22;1521;53.584;9.938;2024-03-06T03:03:35;4.40;99.90
3023;DHT22;1521;53.584;9.938;2024-03-06T03:06:01;4.40;99.90
3023;DHT22;1521;53.584;9.938;2024-03-06T03:08:27;4.30;99.90
3023;DHT22;1521;53.584;9.938;2024-03-06T03:10:52;4.20;99.90
3023;DHT22;1521;53.584;9.938;2024-03-06T03:13:18;4.20;99.90
3023;DHT22;1521;53.584;9.938;2024-03-06T03:15:43;4.10;99.90
3023;DHT22;1521;53.584;9.938;2024-03-06T03:18:09;4.10;99.90
3023;DHT22;1521;53.584;9.938;2024-03-06T03:20:35;4.00;99.90
3023;DHT22;1521;53.584;9.938;2024-03-06T03:23:02;4.00;99.90
3023;DHT22;1521;53.584;9.938;2024-03-06T03:25:27;3.90;99.90
3023;DHT22;1521;53.584;9.938;2024-03-06T03:27:53;3.90;99.90
3023;DHT22;1521;53.584;9.938;2024-03-06T03:30:18;3.80;99.90
3023;DHT22;1521;53.584;9.938;2024-03-06T03:32:50;3.80;99.90
3023;DHT22;1521;53.584;9.938;2024-03-06T03:35:15;3.80;99.90
3023;DHT22;1521;53.584;9.938;2024-03-06T03:37:42;3.70;99.90
3023;DHT22;1521;53.584;9.938;2024-03-06T03:40:09;3.60;99.90
3023;DHT22;1521;53.584;9.938;2024-03-06T03:42:37;3.50;99.90
3023;DHT22;1521;53.584;9.938;2024-03-06T03:45:03;3.50;99.90
3023;DHT22;1521;53.584;9.938;2024-03-06T03:47:30;3.40;99.90
3023;DHT22;1521;53.584;9.938;2024-03-06T03:49:55;3.40;1.00
3023;DHT22;1521;53.584;9.938;2024-03-06T03:52:21;3.40;1.00
3023;DHT22;1521;53.584;9.938;2024-03-06T03:54:46;3.30;1.00
3023;DHT22;1521;53.584;9.938;2024-03-06T03:57:12;3.20;1.00
3023;DHT22;1521;53.584;9.938;2024-03-06T03:59:39;3.20;1.00
3023;DHT22;1521;53.584;9.938;2024-03-06T04:02:06;3.20;1.00
3023;DHT22;1521;53.584;9.938;2024-03-06T04:04:32;3.10;1.00
3023;DHT22;1521;53.584;9.938;2024-03-06T04:06:59;3.00;1.00
3023;DHT22;1521;53.584;9.938;2024-03-06T04:09:29;3.00;1.00
3023;DHT22;1521;53.584;9.938;2024-03-06T04:11:55;3.00;20.10
3023;DHT22;1521;53.584;9.938;2024-03-06T04:14:21;2.90;99.90
3023;DHT22;1521;53.584;9.938;2024-03-06T04:16:47;2.90;99.90
3023;DHT22;1521;53.584;9.938;2024-03-06T04:19:13;2.90;99.90
3023;DHT22;1521;53.584;9.938;2024-03-06T04:21:42;2.80;99.90
3023;DHT22;1521;53.584;9.938;2024-03-06T04:24:08;2.80;99.90
3023;DHT22;1521;53.584;9.938;2024-03-06T04:26:33;2.80;1.00
3023;DHT22;1521;53.584;9.938;2024-03-06T04:28:59;2.70;99.90
3023;DHT22;1521;53.584;9.938;2024-03-06T04:31:24;2.60;99.90
3023;DHT22;1521;53.584;9.938;2024-03-06T04:33:50;2.60;99.90
3023;DHT22;1521;53.584;9.938;2024-03-06T04:36:16;2.60;1.00
3023;DHT22;1521;53.584;9.938;2024-03-06T04:38:42;2.50;1.00
3023;DHT22;1521;53.584;9.938;2024-03-06T04:41:08;2.50;26.90
3023;DHT22;1521;53.584;9.938;2024-03-06T04:43:34;2.50;99.90
3023;DHT22;1521;53.584;9.938;2024-03-06T04:46:00;2.40;99.90
3023;DHT22;1521;53.584;9.938;2024-03-06T04:48:25;2.40;99.90
3023;DHT22;1521;53.584;9.938;2024-03-06T04:50:51;2.40;99.90
3023;DHT22;1521;53.584;9.938;2024-03-06T04:53:17;2.30;98.90
3023;DHT22;1521;53.584;9.938;2024-03-06T04:55:42;2.30;99.90
3023;DHT22;1521;53.584;9.938;2024-03-06T04:58:08;2.20;99.90
3023;DHT22;1521;53.584;9.938;2024-03-06T05:00:34;2.20;99.90
3023;DHT22;1521;53.584;9.938;2024-03-06T05:02:59;2.20;1.00
3023;DHT22;1521;53.584;9.938;2024-03-06T05:05:25;2.20;45.90
3023;DHT22;1521;53.584;9.938;2024-03-06T05:07:51;2.30;1.00
3023;DHT22;1521;53.584;9.938;2024-03-06T05:10:17;2.30;1.00
3023;DHT22;1521;53.584;9.938;2024-03-06T05:12:43;2.30;1.00
3023;DHT22;1521;53.584;9.938;2024-03-06T05:15:09;2.40;1.00
3023;DHT22;1521;53.584;9.938;2024-03-06T05:17:35;2.40;1.00
3023;DHT22;1521;53.584;9.938;2024-03-06T05:20:01;2.40;1.00
3023;DHT22;1521;53.584;9.938;2024-03-06T05:22:26;2.40;1.00
3023;DHT22;1521;53.584;9.938;2024-03-06T05:24:52;2.40;1.00
3023;DHT22;1521;53.584;9.938;2024-03-06T05:27:18;2.30;99.90
3023;DHT22;1521;53.584;9.938;2024-03-06T05:29:44;2.20;99.90
3023;DHT22;1521;53.584;9.938;2024-03-06T05:32:10;2.20;99.90
3023;DHT22;1521;53.584;9.938;2024-03-06T05:34:35;2.20;99.90
3023;DHT22;1521;53.584;9.938;2024-03-06T05:37:01;2.20;99.90
3023;DHT22;1521;53.584;9.938;2024-03-06T05:39:29;2.10;99.90
3023;DHT22;1521;53.584;9.938;2024-03-06T05:41:55;2.00;99.90
3023;DHT22;1521;53.584;9.938;2024-03-06T05:44:20;2.00;99.90
3023;DHT22;1521;53.584;9.938;2024-03-06T05:46:47;2.00;99.90
3023;DHT22;1521;53.584;9.938;2024-03-06T05:49:13;1.90;99.90
3023;DHT22;1521;53.584;9.938;2024-03-06T05:51:39;2.00;1.00
3023;DHT22;1521;53.584;9.938;2024-03-06T05:54:05;1.90;1.00
3023;DHT22;1521;53.584;9.938;2024-03-06T05:56:34;1.90;1.00
3023;DHT22;1521;53.584;9.938;2024-03-06T05:58:59;1.80;1.00
3023;DHT22;1521;53.584;9.938;2024-03-06T06:01:30;1.80;1.00
3023;DHT22;1521;53.584;9.938;2024-03-06T06:03:56;1.80;1.00
3023;DHT22;1521;53.584;9.938;2024-03-06T06:06:21;1.70;1.00
3023;DHT22;1521;53.584;9.938;2024-03-06T06:08:48;1.70;1.00
3023;DHT22;1521;53.584;9.938;2024-03-06T06:11:13;1.80;99.90
3023;DHT22;1521;53.584;9.938;2024-03-06T06:13:39;1.80;99.90
3023;DHT22;1521;53.584;9.938;2024-03-06T06:16:07;1.80;1.00
3023;DHT22;1521;53.584;9.938;2024-03-06T06:18:33;1.80;1.00
3023;DHT22;1521;53.584;9.938;2024-03-06T06:20:59;1.80;1.00
3023;DHT22;1521;53.584;9.938;2024-03-06T06:23:25;1.70;99.90
3023;DHT22;1521;53.584;9.938;2024-03-06T06:25:51;1.70;99.90
3023;DHT22;1521;53.584;9.938;2024-03-06T06:28:16;1.70;99.90
3023;DHT22;1521;53.584;9.938;2024-03-06T06:30:42;1.70;99.90
3023;DHT22;1521;53.584;9.938;2024-03-06T06:33:08;1.70;99.90
3023;DHT22;1521;53.584;9.938;2024-03-06T06:35:34;1.70;99.90
3023;DHT22;1521;53.584;9.938;2024-03-06T06:38:02;1.70;99.90
3023;DHT22;1521;53.584;9.938;2024-03-06T06:40:28;1.70;1.00
3023;DHT22;1521;53.584;9.938;2024-03-06T06:42:54;1.80;99.90
3023;DHT22;1521;53.584;9.938;2024-03-06T06:45:20;1.90;1.00
3023;DHT22;1521;53.584;9.938;2024-03-06T06:47:47;2.10;1.00
3023;DHT22;1521;53.584;9.938;2024-03-06T06:50:13;2.30;99.90
3023;DHT22;1521;53.584;9.938;2024-03-06T06:52:39;2.60;1.00
3023;DHT22;1521;53.584;9.938;2024-03-06T06:55:05;2.80;99.90
3023;DHT22;1521;53.584;9.938;2024-03-06T06:57:31;2.90;99.90
3023;DHT22;1521;53.584;9.938;2024-03-06T06:59:59;3.10;99.90
3023;DHT22;1521;53.584;9.938;2024-03-06T07:02:24;3.20;1.00
3023;DHT22;1521;53.584;9.938;2024-03-06T07:04:50;3.30;1.00
3023;DHT22;1521;53.584;9.938;2024-03-06T07:07:16;3.50;99.90
3023;DHT22;1521;53.584;9.938;2024-03-06T07:09:42;3.60;54.90
3023;DHT22;1521;53.584;9.938;2024-03-06T07:12:08;3.70;1.00
3023;DHT22;1521;53.584;9.938;2024-03-06T07:14:34;3.80;1.00
3023;DHT22;1521;53.584;9.938;2024-03-06T07:17:01;3.80;99.90
3023;DHT22;1521;53.584;9.938;2024-03-06T07:19:26;3.80;99.90
3023;DHT22;1521;53.584;9.938;2024-03-06T07:21:52;3.90;99.90
3023;DHT22;1521;53.584;9.938;2024-03-06T07:24:18;4.00;99.90
3023;DHT22;1521;53.584;9.938;2024-03-06T07:26:44;4.10;99.90
3023;DHT22;1521;53.584;9.938;2024-03-06T07:29:10;4.20;99.90
3023;DHT22;1521;53.584;9.938;2024-03-06T07:31:41;4.30;99.90
3023;DHT22;1521;53.584;9.938;2024-03-06T07:34:07;4.50;99.90
3023;DHT22;1521;53.584;9.938;2024-03-06T07:36:34;4.60;99.90
3023;DHT22;1521;53.584;9.938;2024-03-06T07:39:00;4.80;99.90
3023;DHT22;1521;53.584;9.938;2024-03-06T07:41:26;4.90;93.80
3023;DHT22;1521;53.584;9.938;2024-03-06T07:43:51;5.00;88.40
3023;DHT22;1521;53.584;9.938;2024-03-06T07:46:17;5.20;41.10
3023;DHT22;1521;53.584;9.938;2024-03-06T07:48:43;5.50;31.70
3023;DHT22;1521;53.584;9.938;2024-03-06T07:51:12;6.10;11.90
3023;DHT22;1521;53.584;9.938;2024-03-06T07:53:38;6.80;1.00
3023;DHT22;1521;53.584;9.938;2024-03-06T07:56:03;7.60;1.00
3023;DHT22;1521;53.584;9.938;2024-03-06T07:58:29;8.20;1.00
3023;DHT22;1521;53.584;9.938;2024-03-06T08:00:55;8.70;1.00
3023;DHT22;1521;53.584;9.938;2024-03-06T08:03:22;9.00;1.00
3023;DHT22;1521;53.584;9.938;2024-03-06T08:05:51;9.40;1.00
3023;DHT22;1521;53.584;9.938;2024-03-06T08:08:18;9.70;1.00
3023;DHT22;1521;53.584;9.938;2024-03-06T08:10:43;10.20;1.00
3023;DHT22;1521;53.584;9.938;2024-03-06T08:13:10;10.40;1.00
3023;DHT22;1521;53.584;9.938;2024-03-06T08:15:36;10.60;1.00
3023;DHT22;1521;53.584;9.938;2024-03-06T08:18:01;10.90;1.00
3023;DHT22;1521;53.584;9.938;2024-03-06T08:20:29;11.20;1.00
3023;DHT22;1521;53.584;9.938;2024-03-06T08:22:56;11.00;1.00
3023;DHT22;1521;53.584;9.938;2024-03-06T08:25:22;10.80;1.00
3023;DHT22;1521;53.584;9.938;2024-03-06T08:27:48;10.80;1.00
3023;DHT22;1521;53.584;9.938;2024-03-06T08:30:13;11.10;1.00
3023;DHT22;1521;53.584;9.938;2024-03-06T08:32:39;11.60;1.00
3023;DHT22;1521;53.584;9.938;2024-03-06T08:35:07;11.60;1.00
3023;DHT22;1521;53.584;9.938;2024-03-06T08:37:36;12.00;1.00
3023;DHT22;1521;53.584;9.938;2024-03-06T08:40:02;12.20;1.00
3023;DHT22;1521;53.584;9.938;2024-03-06T08:42:29;12.10;1.00
3023;DHT22;1521;53.584;9.938;2024-03-06T08:44:54;12.20;1.00
3023;DHT22;1521;53.584;9.938;2024-03-06T08:47:20;12.10;1.00
3023;DHT22;1521;53.584;9.938;2024-03-06T08:49:45;11.50;1.00
3023;DHT22;1521;53.584;9.938;2024-03-06T08:52:11;11.10;1.00
3023;DHT22;1521;53.584;9.938;2024-03-06T08:54:37;11.20;1.00
3023;DHT22;1521;53.584;9.938;2024-03-06T08:57:03;11.00;1.00
3023;DHT22;1521;53.584;9.938;2024-03-06T08:59:29;11.20;1.00
3023;DHT22;1521;53.584;9.938;2024-03-06T09:01:55;11.20;1.00
3023;DHT22;1521;53.584;9.938;2024-03-06T09:04:21;11.40;1.00
3023;DHT22;1521;53.584;9.938;2024-03-06T09:06:47;11.50;1.00
3023;DHT22;1521;53.584;9.938;2024-03-06T09:09:14;11.70;1.00
3023;DHT22;1521;53.584;9.938;2024-03-06T09:11:41;11.50;1.00
3023;DHT22;1521;53.584;9.938;2024-03-06T09:14:07;11.00;1.00
3023;DHT22;1521;53.584;9.938;2024-03-06T09:16:34;10.50;1.00
3023;DHT22;1521;53.584;9.938;2024-03-06T09:19:00;10.80;1.00
3023;DHT22;1521;53.584;9.938;2024-03-06T09:21:25;10.40;1.00
3023;DHT22;1521;53.584;9.938;2024-03-06T09:23:51;9.50;1.00
3023;DHT22;1521;53.584;9.938;2024-03-06T09:26:17;8.90;1.00
3023;DHT22;1521;53.584;9.938;2024-03-06T09:28:43;8.60;1.00
3023;DHT22;1521;53.584;9.938;2024-03-06T09:31:08;8.30;1.00
3023;DHT22;1521;53.584;9.938;2024-03-06T09:33:34;8.40;1.00
3023;DHT22;1521;53.584;9.938;2024-03-06T09:36:00;8.40;1.00
3023;DHT22;1521;53.584;9.938;2024-03-06T09:38:26;8.40;1.00
3023;DHT22;1521;53.584;9.938;2024-03-06T09:40:51;8.60;1.00
3023;DHT22;1521;53.584;9.938;2024-03-06T09:43:20;9.10;1.00
3023;DHT22;1521;53.584;9.938;2024-03-06T09:45:48;9.30;1.00
3023;DHT22;1521;53.584;9.938;2024-03-06T09:48:14;9.20;1.00
3023;DHT22;1521;53.584;9.938;2024-03-06T09:50:43;9.20;1.00
3023;DHT22;1521;53.584;9.938;2024-03-06T09:53:12;9.10;1.00
3023;DHT22;1521;53.584;9.938;2024-03-06T09:55:41;9.10;1.00
3023;DHT22;1521;53.584;9.938;2024-03-06T09:58:07;9.00;1.00
3023;DHT22;1521;53.584;9.938;2024-03-06T10:00:34;8.80;1.00
3023;DHT22;1521;53.584;9.938;2024-03-06T10:03:02;8.40;1.00
3023;DHT22;1521;53.584;9.938;2024-03-06T10:05:29;8.30;1.00
3023;DHT22;1521;53.584;9.938;2024-03-06T10:07:56;8.20;1.00
3023;DHT22;1521;53.584;9.938;2024-03-06T10:10:21;8.30;1.00
3023;DHT22;1521;53.584;9.938;2024-03-06T10:12:48;8.40;1.00
3023;DHT22;1521;53.584;9.938;2024-03-06T10:15:15;8.80;1.00
3023;DHT22;1521;53.584;9.938;2024-03-06T10:17:40;9.20;1.00
3023;DHT22;1521;53.584;9.938;2024-03-06T10:20:19;9.20;1.00
3023;DHT22;1521;53.584;9.938;2024-03-06T10:22:53;9.10;1.00
3023;DHT22;1521;53.584;9.938;2024-03-06T10:25:22;9.10;1.00
3023;DHT22;1521;53.584;9.938;2024-03-06T10:28:11;9.00;1.00
3023;DHT22;1521;53.584;9.938;2024-03-06T10:30:38;8.90;1.00
3023;DHT22;1521;53.584;9.938;2024-03-06T10:33:08;9.40;1.00
3023;DHT22;1521;53.584;9.938;2024-03-06T10:35:34;9.70;1.00
3023;DHT22;1521;53.584;9.938;2024-03-06T10:38:02;10.10;1.00
3023;DHT22;1521;53.584;9.938;2024-03-06T10:40:34;10.30;1.00
3023;DHT22;1521;53.584;9.938;2024-03-06T10:43:02;10.40;1.00
3023;DHT22;1521;53.584;9.938;2024-03-06T10:48:13;10.60;1.00
3023;DHT22;1521;53.584;9.938;2024-03-06T10:50:40;11.10;1.00
3023;DHT22;1521;53.584;9.938;2024-03-06T10:53:09;11.90;1.00
3023;DHT22;1521;53.584;9.938;2024-03-06T10:55:36;12.50;1.00
3023;DHT22;1521;53.584;9.938;2024-03-06T10:58:07;13.40;1.00
3023;DHT22;1521;53.584;9.938;2024-03-06T11:00:40;13.80;1.00
3023;DHT22;1521;53.584;9.938;2024-03-06T11:03:07;14.60;1.00
3023;DHT22;1521;53.584;9.938;2024-03-06T11:05:39;15.70;1.00
3023;DHT22;1521;53.584;9.938;2024-03-06T11:08:15;16.40;1.00
3023;DHT22;1521;53.584;9.938;2024-03-06T11:10:43;17.00;1.00
3023;DHT22;1521;53.584;9.938;2024-03-06T11:13:22;17.60;1.00
3023;DHT22;1521;53.584;9.938;2024-03-06T11:15:50;18.00;1.00
3023;DHT22;1521;53.584;9.938;2024-03-06T11:23:32;17.80;1.00
3023;DHT22;1521;53.584;9.938;2024-03-06T11:26:02;18.50;1.00
3023;DHT22;1521;53.584;9.938;2024-03-06T11:28:30;18.50;1.00
3023;DHT22;1521;53.584;9.938;2024-03-06T11:31:01;18.50;1.00
3023;DHT22;1521;53.584;9.938;2024-03-06T11:33:46;18.30;1.00
3023;DHT22;1521;53.584;9.938;2024-03-06T11:36:23;18.40;1.00
3023;DHT22;1521;53.584;9.938;2024-03-06T11:39:05;18.40;1.00
3023;DHT22;1521;53.584;9.938;2024-03-06T11:44:08;18.70;1.00
3023;DHT22;1521;53.584;9.938;2024-03-06T11:49:19;18.80;1.00
3023;DHT22;1521;53.584;9.938;2024-03-06T11:51:52;18.80;1.00
3023;DHT22;1521;53.584;9.938;2024-03-06T11:54:18;18.80;1.00
3023;DHT22;1521;53.584;9.938;2024-03-06T11:56:49;19.10;1.00
3023;DHT22;1521;53.584;9.938;2024-03-06T11:59:26;19.30;1.00
3023;DHT22;1521;53.584;9.938;2024-03-06T12:01:55;18.10;1.00
3023;DHT22;1521;53.584;9.938;2024-03-06T12:04:21;16.60;1.00
3023;DHT22;1521;53.584;9.938;2024-03-06T12:06:48;16.60;1.00
3023;DHT22;1521;53.584;9.938;2024-03-06T12:09:14;17.20;1.00
3023;DHT22;1521;53.584;9.938;2024-03-06T12:11:41;17.40;1.00
3023;DHT22;1521;53.584;9.938;2024-03-06T12:14:16;16.80;1.00
3023;DHT22;1521;53.584;9.938;2024-03-06T12:17:04;15.80;1.00
3023;DHT22;1521;53.584;9.938;2024-03-06T12:19:32;15.10;1.00
3023;DHT22;1521;53.584;9.938;2024-03-06T12:22:04;14.60;1.00
3023;DHT22;1521;53.584;9.938;2024-03-06T12:24:30;14.10;1.00
3023;DHT22;1521;53.584;9.938;2024-03-06T12:27:03;13.50;1.00
3023;DHT22;1521;53.584;9.938;2024-03-06T12:29:30;13.60;1.00
3023;DHT22;1521;53.584;9.938;2024-03-06T12:31:57;13.50;1.00
3023;DHT22;1521;53.584;9.938;2024-03-06T12:34:23;13.30;1.00
3023;DHT22;1521;53.584;9.938;2024-03-06T12:36:49;13.20;1.00
3023;DHT22;1521;53.584;9.938;2024-03-06T12:39:18;12.90;1.00
3023;DHT22;1521;53.584;9.938;2024-03-06T12:41:47;12.60;1.00
3023;DHT22;1521;53.584;9.938;2024-03-06T12:44:13;12.70;1.00
3023;DHT22;1521;53.584;9.938;2024-03-06T12:46:40;13.60;1.00
3023;DHT22;1521;53.584;9.938;2024-03-06T12:49:06;13.90;1.00
3023;DHT22;1521;53.584;9.938;2024-03-06T12:51:31;13.70;1.00
3023;DHT22;1521;53.584;9.938;2024-03-06T12:53:58;13.60;1.00
3023;DHT22;1521;53.584;9.938;2024-03-06T12:56:24;14.10;1.00
3023;DHT22;1521;53.584;9.938;2024-03-06T12:58:51;14.50;1.00
3023;DHT22;1521;53.584;9.938;2024-03-06T13:01:16;15.10;1.00
3023;DHT22;1521;53.584;9.938;2024-03-06T13:03:42;14.90;1.00
3023;DHT22;1521;53.584;9.938;2024-03-06T13:06:07;15.10;1.00
3023;DHT22;1521;53.584;9.938;2024-03-06T13:08:33;15.80;1.00
3023;DHT22;1521;53.584;9.938;2024-03-06T13:10:59;16.00;1.00
3023;DHT22;1521;53.584;9.938;2024-03-06T13:13:24;16.60;1.00
3023;DHT22;1521;53.584;9.938;2024-03-06T13:15:53;17.50;1.00
3023;DHT22;1521;53.584;9.938;2024-03-06T13:18:19;17.40;1.00
3023;DHT22;1521;53.584;9.938;2024-03-06T13:20:44;17.00;1.00
3023;DHT22;1521;53.584;9.938;2024-03-06T13:23:11;17.20;1.00
3023;DHT22;1521;53.584;9.938;2024-03-06T13:25:36;17.00;1.00
3023;DHT22;1521;53.584;9.938;2024-03-06T13:28:03;17.10;1.00
3023;DHT22;1521;53.584;9.938;2024-03-06T13:30:29;16.30;1.00
3023;DHT22;1521;53.584;9.938;2024-03-06T13:32:54;16.70;1.00
3023;DHT22;1521;53.584;9.938;2024-03-06T13:35:20;16.40;1.00
3023;DHT22;1521;53.584;9.938;2024-03-06T13:37:47;16.40;1.00
3023;DHT22;1521;53.584;9.938;2024-03-06T13:40:13;16.70;1.00
3023;DHT22;1521;53.584;9.938;2024-03-06T13:42:39;16.60;1.00
3023;DHT22;1521;53.584;9.938;2024-03-06T13:45:06;16.40;1.00
3023;DHT22;1521;53.584;9.938;2024-03-06T13:47:41;16.20;1.00
3023;DHT22;1521;53.584;9.938;2024-03-06T13:50:12;16.00;1.00
3023;DHT22;1521;53.584;9.938;2024-03-06T13:52:38;15.90;1.00
3023;DHT22;1521;53.584;9.938;2024-03-06T13:55:03;15.80;1.00
3023;DHT22;1521;53.584;9.938;2024-03-06T13:57:33;15.20;1.00
3023;DHT22;1521;53.584;9.938;2024-03-06T14:00:03;14.40;1.00
3023;DHT22;1521;53.584;9.938;2024-03-06T14:02:30;13.80;1.00
3023;DHT22;1521;53.584;9.938;2024-03-06T14:04:56;13.30;1.00
3023;DHT22;1521;53.584;9.938;2024-03-06T14:07:22;13.00;1.00
3023;DHT22;1521;53.584;9.938;2024-03-06T14:09:49;12.60;1.00
3023;DHT22;1521;53.584;9.938;2024-03-06T14:12:14;12.20;1.00
3023;DHT22;1521;53.584;9.938;2024-03-06T14:14:40;12.70;1.00
3023;DHT22;1521;53.584;9.938;2024-03-06T14:17:06;13.50;1.00
3023;DHT22;1521;53.584;9.938;2024-03-06T14:19:31;14.20;1.00
3023;DHT22;1521;53.584;9.938;2024-03-06T14:21:57;14.70;1.00
3023;DHT22;1521;53.584;9.938;2024-03-06T14:24:22;14.90;1.00
3023;DHT22;1521;53.584;9.938;2024-03-06T14:26:48;14.70;1.00
3023;DHT22;1521;53.584;9.938;2024-03-06T14:29:14;14.90;1.00
3023;DHT22;1521;53.584;9.938;2024-03-06T14:31:40;15.00;1.00
3023;DHT22;1521;53.584;9.938;2024-03-06T14:34:05;14.90;1.00
3023;DHT22;1521;53.584;9.938;2024-03-06T14:36:32;14.70;1.00
3023;DHT22;1521;53.584;9.938;2024-03-06T14:38:58;14.70;1.00
3023;DHT22;1521;53.584;9.938;2024-03-06T14:41:23;14.60;1.00
3023;DHT22;1521;53.584;9.938;2024-03-06T14:43:49;14.50;1.00
3023;DHT22;1521;53.584;9.938;2024-03-06T14:46:14;14.40;1.00
3023;DHT22;1521;53.584;9.938;2024-03-06T14:48:40;13.90;1.00
3023;DHT22;1521;53.584;9.938;2024-03-06T14:51:06;13.60;1.00
3023;DHT22;1521;53.584;9.938;2024-03-06T14:53:31;13.70;1.00
3023;DHT22;1521;53.584;9.938;2024-03-06T14:55:57;13.60;1.00
3023;DHT22;1521;53.584;9.938;2024-03-06T14:58:23;13.30;1.00
3023;DHT22;1521;53.584;9.938;2024-03-06T15:00:49;13.20;1.00
3023;DHT22;1521;53.584;9.938;2024-03-06T15:03:16;13.00;1.00
3023;DHT22;1521;53.584;9.938;2024-03-06T15:05:43;12.40;1.00
3023;DHT22;1521;53.584;9.938;2024-03-06T15:08:08;12.00;1.00
3023;DHT22;1521;53.584;9.938;2024-03-06T15:10:34;11.60;1.00
3023;DHT22;1521;53.584;9.938;2024-03-06T15:12:59;11.00;1.00
3023;DHT22;1521;53.584;9.938;2024-03-06T15:15:25;10.50;1.00
3023;DHT22;1521;53.584;9.938;2024-03-06T15:17:51;10.10;1.00
3023;DHT22;1521;53.584;9.938;2024-03-06T15:20:16;9.80;1.00
3023;DHT22;1521;53.584;9.938;2024-03-06T15:22:43;9.60;1.00
3023;DHT22;1521;53.584;9.938;2024-03-06T15:25:12;9.50;1.00
3023;DHT22;1521;53.584;9.938;2024-03-06T15:27:39;9.30;1.00
3023;DHT22;1521;53.584;9.938;2024-03-06T15:30:06;9.00;1.00
3023;DHT22;1521;53.584;9.938;2024-03-06T15:32:36;8.80;1.00
3023;DHT22;1521;53.584;9.938;2024-03-06T15:35:03;8.70;1.00
3023;DHT22;1521;53.584;9.938;2024-03-06T15:37:29;8.60;1.00
3023;DHT22;1521;53.584;9.938;2024-03-06T15:39:56;8.60;1.00
3023;DHT22;1521;53.584;9.938;2024-03-06T15:42:22;8.50;1.00
3023;DHT22;1521;53.584;9.938;2024-03-06T15:44:49;8.50;1.00
3023;DHT22;1521;53.584;9.938;2024-03-06T15:47:16;8.40;1.00
3023;DHT22;1521;53.584;9.938;2024-03-06T15:49:43;8.30;1.00
3023;DHT22;1521;53.584;9.938;2024-03-06T15:52:14;8.10;1.00
3023;DHT22;1521;53.584;9.938;2024-03-06T15:54:40;8.00;1.00
3023;DHT22;1521;53.584;9.938;2024-03-06T15:57:07;7.90;1.00
3023;DHT22;1521;53.584;9.938;2024-03-06T15:59:36;7.80;1.00
3023;DHT22;1521;53.584;9.938;2024-03-06T16:02:03;7.70;1.00
3023;DHT22;1521;53.584;9.938;2024-03-06T16:04:29;7.70;1.00
3023;DHT22;1521;53.584;9.938;2024-03-06T16:06:56;7.60;1.00
3023;DHT22;1521;53.584;9.938;2024-03-06T16:09:22;7.50;1.00
3023;DHT22;1521;53.584;9.938;2024-03-06T16:11:48;7.50;1.00
3023;DHT22;1521;53.584;9.938;2024-03-06T16:14:14;7.50;1.00
3023;DHT22;1521;53.584;9.938;2024-03-06T16:16:40;7.50;1.00
3023;DHT22;1521;53.584;9.938;2024-03-06T16:19:06;7.50;1.00
3023;DHT22;1521;53.584;9.938;2024-03-06T16:21:32;7.40;1.00
3023;DHT22;1521;53.584;9.938;2024-03-06T16:23:58;7.30;1.00
3023;DHT22;1521;53.584;9.938;2024-03-06T16:26:28;7.20;1.00
3023;DHT22;1521;53.584;9.938;2024-03-06T16:28:54;7.10;1.00
3023;DHT22;1521;53.584;9.938;2024-03-06T16:31:20;6.90;1.00